createdAt,value
2022-12-11T00:01:25.041Z,964.20
2022-12-11T00:11:25.068Z,964.08
2022-12-11T00:21:25.257Z,964.03
2022-12-11T00:31:25.455Z,963.93
2022-12-11T00:41:25.558Z,963.90
2022-12-11T00:51:25.710Z,963.86
2022-12-11T01:01:26.000Z,963.99
2022-12-11T01:11:26.052Z,964.05
2022-12-11T01:21:26.242Z,964.20
2022-12-11T01:31:26.432Z,964.27
2022-12-11T01:41:26.609Z,964.28
2022-12-11T01:51:26.817Z,964.40
2022-12-11T02:01:27.002Z,964.39
2022-12-11T02:11:27.105Z,964.38
2022-12-11T02:21:27.450Z,964.44
2022-12-11T02:31:27.475Z,964.52
2022-12-11T02:41:27.550Z,964.42
2022-12-11T02:51:27.768Z,964.43
2022-12-11T03:01:28.021Z,964.56
2022-12-11T03:11:28.027Z,964.44
2022-12-11T03:21:28.192Z,964.31
2022-12-11T03:31:28.901Z,964.39
2022-12-11T03:41:28.602Z,964.53
2022-12-11T03:51:28.781Z,964.51
2022-12-11T04:01:28.982Z,964.45
2022-12-11T04:11:29.088Z,964.19
2022-12-11T04:21:29.559Z,964.16
2022-12-11T04:31:30.301Z,964.03
2022-12-11T04:41:29.572Z,964.09
2022-12-11T04:51:29.773Z,964.06
2022-12-11T05:01:29.982Z,964.06
2022-12-11T05:11:30.058Z,964.00
2022-12-11T05:21:34.823Z,963.98
2022-12-11T05:31:30.417Z,964.05
2022-12-11T05:41:30.571Z,963.88
2022-12-11T05:51:30.785Z,963.85
2022-12-11T06:01:30.931Z,963.79
2022-12-11T06:11:31.139Z,963.76
2022-12-11T06:21:31.359Z,963.56
2022-12-11T06:31:31.513Z,963.52
2022-12-11T06:41:31.574Z,963.62
2022-12-11T06:51:31.897Z,963.74
2022-12-11T07:01:31.969Z,963.88
2022-12-11T07:11:32.158Z,963.94
2022-12-11T07:21:32.314Z,964.08
2022-12-11T07:31:32.568Z,964.01
2022-12-11T07:41:32.653Z,964.11
2022-12-11T07:51:32.875Z,964.11
2022-12-11T08:01:33.304Z,964.12
2022-12-11T08:11:33.199Z,964.04
2022-12-11T08:21:33.345Z,964.09
2022-12-11T08:31:33.579Z,963.95
2022-12-11T08:41:33.729Z,964.12
2022-12-11T08:51:33.922Z,964.11
2022-12-11T09:01:34.349Z,964.04
2022-12-11T09:11:34.278Z,963.95
2022-12-11T09:21:34.419Z,963.93
2022-12-11T09:31:34.635Z,963.83
2022-12-11T09:41:35.078Z,963.85
2022-12-11T09:51:34.943Z,963.78
2022-12-11T10:01:35.405Z,963.77
2022-12-11T10:11:35.254Z,963.67
2022-12-11T10:21:35.572Z,963.52
2022-12-11T10:31:36.070Z,963.40
2022-12-11T10:41:35.776Z,963.26
2022-12-11T10:51:36.113Z,963.16
2022-12-11T11:01:36.085Z,963.11
2022-12-11T11:11:36.204Z,963.11
2022-12-11T11:21:36.422Z,962.99
2022-12-11T11:31:36.668Z,962.91
2022-12-11T11:41:36.871Z,962.81
2022-12-11T11:51:37.168Z,962.83
2022-12-11T12:01:38.349Z,962.68
2022-12-11T12:11:37.418Z,962.72
2022-12-11T12:21:37.503Z,962.66
2022-12-11T12:31:37.718Z,962.59
2022-12-11T12:41:37.802Z,962.55
2022-12-11T12:51:38.039Z,962.50
2022-12-11T13:01:38.231Z,962.46
2022-12-11T13:11:38.456Z,962.45
2022-12-11T13:21:38.656Z,962.52
2022-12-11T13:31:38.987Z,962.58
2022-12-11T13:41:38.996Z,962.51
2022-12-11T13:51:39.188Z,962.56
2022-12-11T14:01:39.317Z,962.56
2022-12-11T14:11:39.529Z,962.60
2022-12-11T14:21:39.662Z,962.54
2022-12-11T14:31:39.942Z,962.76
2022-12-11T14:41:40.031Z,962.85
2022-12-11T14:51:40.327Z,962.89
2022-12-11T15:01:40.378Z,962.98
2022-12-11T15:11:40.464Z,962.98
2022-12-11T15:21:40.616Z,962.96
2022-12-11T15:31:40.889Z,963.12
2022-12-11T15:41:40.973Z,963.17
2022-12-11T15:51:43.181Z,963.25
2022-12-11T16:01:41.345Z,963.25
2022-12-11T16:11:41.631Z,963.34
2022-12-11T16:21:41.556Z,963.40
2022-12-11T16:31:41.879Z,963.34
2022-12-11T16:41:41.928Z,963.40
2022-12-11T16:51:42.512Z,963.38
2022-12-11T17:01:42.367Z,963.39
2022-12-11T17:11:42.562Z,963.32
2022-12-11T17:21:45.877Z,963.36
2022-12-11T17:31:43.905Z,963.18
2022-12-11T17:41:43.195Z,963.12
2022-12-11T17:51:48.471Z,963.12
2022-12-11T18:01:44.760Z,963.15
2022-12-11T18:11:43.645Z,963.14
2022-12-11T18:21:43.826Z,963.22
2022-12-11T18:31:44.374Z,963.16
2022-12-11T18:41:45.619Z,963.17
2022-12-11T18:51:45.346Z,963.20
2022-12-11T19:01:44.567Z,963.16
2022-12-11T19:11:44.646Z,963.29
2022-12-11T19:21:44.793Z,963.28
2022-12-11T19:31:45.052Z,963.28
2022-12-11T19:41:45.102Z,963.17
2022-12-11T19:51:45.314Z,963.25
2022-12-11T20:01:45.511Z,963.21
2022-12-11T20:11:45.849Z,963.20
2022-12-11T20:21:45.882Z,963.36
2022-12-11T20:31:51.847Z,963.38
2022-12-11T20:41:47.406Z,963.26
2022-12-11T20:51:46.318Z,963.38
2022-12-11T21:01:46.679Z,963.39
2022-12-11T21:11:46.637Z,963.46
2022-12-11T21:21:46.848Z,963.65
2022-12-11T21:31:47.167Z,963.64
2022-12-11T21:41:47.273Z,963.59
2022-12-11T21:51:47.826Z,963.61
2022-12-11T22:01:47.992Z,963.57
2022-12-11T22:11:47.803Z,963.57
2022-12-11T22:21:53.062Z,963.64
2022-12-11T22:31:49.193Z,963.66
2022-12-11T22:41:50.403Z,963.56
2022-12-11T22:51:48.491Z,963.61
2022-12-11T23:01:48.634Z,963.70
2022-12-11T23:11:54.852Z,963.64
2022-12-11T23:21:56.064Z,963.59
2022-12-11T23:31:50.184Z,963.62
2022-12-11T23:41:49.519Z,963.62
2022-12-11T23:51:49.487Z,963.69
